Time;durP1;ratioP1;P1;durP2;ratioP2;P2;SDS_P1;SDS_P2;PMS_P1;PMS_P2;Temp;Humidity;BMP_temperature;BMP_pressure;BME280_temperature;BME280_humidity;BME280_pressure;Samples;Min_cycle;Max_cycle;Signal;HPM_P1;HPM_P2
2022/12/29 00:01:29;;;;;;;7.15;4.85;;;10.00;99.90;;;;;;4963922;28;20046;-84
2022/12/29 00:03:55;;;;;;;6.35;4.22;;;10.00;99.90;;;;;;4982392;28;20134;-84
2022/12/29 00:06:20;;;;;;;6.45;4.75;;;10.00;99.90;;;;;;4956090;28;20273;-85
2022/12/29 00:08:46;;;;;;;6.15;4.07;;;10.00;99.90;;;;;;4956665;28;20093;-84
2022/12/29 00:11:14;;;;;;;7.43;5.03;;;10.00;99.90;;;;;;4977619;28;20031;-84
2022/12/29 00:16:25;;;;;;;7.47;5.18;;;10.00;99.90;;;;;;4970656;28;20050;-85
2022/12/29 00:18:51;;;;;;;8.48;5.00;;;10.10;99.90;;;;;;4977589;28;20049;-85
2022/12/29 00:35:45;;;;;;;7.38;5.30;;;10.00;99.90;;;;;;4966139;28;20070;-85
2022/12/29 00:46:25;;;;;;;7.57;4.90;;;10.00;99.90;;;;;;4977393;28;20133;-85
2022/12/29 00:51:36;;;;;;;7.32;4.82;;;10.10;99.90;;;;;;4962267;28;20042;-85
2022/12/29 00:54:01;;;;;;;8.02;5.10;;;10.10;99.90;;;;;;4964987;28;20043;-84
2022/12/29 00:56:27;;;;;;;9.88;5.18;;;10.10;99.90;;;;;;4982599;28;20042;-85
2022/12/29 00:58:53;;;;;;;7.60;5.38;;;10.10;99.90;;;;;;4963887;28;20065;-84
2022/12/29 01:01:18;;;;;;;6.90;5.13;;;10.10;99.90;;;;;;4981124;28;20046;-84
2022/12/29 01:03:44;;;;;;;7.93;5.03;;;10.20;99.90;;;;;;4948108;28;20099;-84
2022/12/29 01:06:11;;;;;;;6.22;4.50;;;10.30;99.90;;;;;;4963341;28;20045;-84
2022/12/29 01:08:37;;;;;;;7.05;4.43;;;10.20;99.90;;;;;;4954621;28;20031;-84
2022/12/29 01:11:09;;;;;;;9.30;5.05;;;10.30;99.90;;;;;;4955329;28;20462;-84
2022/12/29 01:13:36;;;;;;;7.75;5.05;;;11.00;99.90;;;;;;4963370;28;20038;-84
2022/12/29 01:16:02;;;;;;;6.90;4.75;;;10.20;99.90;;;;;;4963591;28;20050;-84
2022/12/29 01:18:28;;;;;;;6.88;4.35;;;10.20;99.90;;;;;;4959461;28;20111;-84
2022/12/29 01:21:02;;;;;;;6.15;4.53;;;10.20;99.90;;;;;;4956685;28;20043;-84
2022/12/29 01:23:28;;;;;;;5.57;3.80;;;10.20;99.90;;;;;;4975017;28;20035;-84
2022/12/29 01:25:54;;;;;;;6.30;3.90;;;10.20;99.90;;;;;;4978299;28;20035;-84
2022/12/29 01:28:20;;;;;;;6.35;3.75;;;10.30;99.90;;;;;;4975646;28;20034;-84
2022/12/29 01:30:46;;;;;;;6.00;4.00;;;11.10;99.90;;;;;;4951201;28;20433;-84
2022/12/29 01:33:11;;;;;;;6.97;4.22;;;10.30;99.90;;;;;;4961360;28;20094;-84
2022/12/29 01:35:37;;;;;;;7.55;3.80;;;10.30;99.90;;;;;;4974176;28;20118;-84
2022/12/29 01:38:03;;;;;;;6.13;3.63;;;10.30;99.90;;;;;;4970369;28;20486;-83
2022/12/29 01:40:28;;;;;;;7.93;3.92;;;10.30;99.90;;;;;;4942254;28;20110;-84
2022/12/29 01:42:54;;;;;;;7.35;3.78;;;10.30;99.90;;;;;;4963365;28;20035;-84
2022/12/29 01:45:21;;;;;;;5.20;3.80;;;10.30;99.90;;;;;;4976740;28;20046;-85
2022/12/29 01:47:57;;;;;;;5.45;3.72;;;10.30;99.90;;;;;;4967269;28;20117;-84
2022/12/29 01:50:33;;;;;;;6.35;3.65;;;10.30;99.90;;;;;;4975746;28;20038;-84
2022/12/29 01:53:06;;;;;;;6.68;3.28;;;10.30;99.90;;;;;;4978339;28;20512;-84
2022/12/29 01:55:35;;;;;;;5.47;3.63;;;10.30;99.90;;;;;;4979707;28;20073;-85
2022/12/29 01:58:04;;;;;;;6.65;3.72;;;10.30;99.90;;;;;;4965362;28;20450;-84
2022/12/29 02:00:30;;;;;;;5.97;3.38;;;10.30;99.90;;;;;;4975072;28;20038;-84
2022/12/29 02:02:56;;;;;;;6.30;3.22;;;10.70;99.90;;;;;;4983574;28;20041;-84
2022/12/29 02:05:36;;;;;;;6.40;3.53;;;10.30;99.90;;;;;;4982107;28;20078;-84
2022/12/29 02:08:02;;;;;;;5.35;2.80;;;10.30;99.90;;;;;;4957038;28;20109;-84
2022/12/29 02:10:31;;;;;;;4.75;3.03;;;10.30;99.90;;;;;;4975765;28;20073;-84
2022/12/29 02:12:56;;;;;;;6.25;3.10;;;10.30;99.90;;;;;;4955360;28;20437;-84
2022/12/29 02:15:42;;;;;;;7.28;3.10;;;10.30;99.90;;;;;;4958899;28;20039;-84
2022/12/29 02:18:17;;;;;;;5.70;3.03;;;10.40;99.90;;;;;;4928422;28;20084;-84
2022/12/29 02:20:58;;;;;;;4.95;2.70;;;10.60;99.90;;;;;;4978812;28;20664;-84
2022/12/29 02:23:53;;;;;;;4.75;2.97;;;10.40;99.90;;;;;;4952728;28;20043;-84
2022/12/29 02:26:42;;;;;;;5.28;2.83;;;10.40;99.90;;;;;;4958643;28;20038;-84
2022/12/29 02:29:45;;;;;;;5.53;3.03;;;10.40;99.90;;;;;;4967604;28;20051;-84
2022/12/29 02:32:17;;;;;;;6.30;2.78;;;10.40;99.90;;;;;;4975128;28;20126;-84
2022/12/29 02:35:00;;;;;;;5.70;2.58;;;10.50;99.90;;;;;;4974997;28;20042;-84
2022/12/29 02:37:30;;;;;;;5.78;3.00;;;10.50;99.90;;;;;;4964249;28;20117;-84
2022/12/29 02:40:27;;;;;;;5.03;2.88;;;10.50;99.90;;;;;;4962394;28;20073;-84
2022/12/29 02:43:13;;;;;;;6.88;2.72;;;10.50;99.90;;;;;;4959002;28;20046;-84
2022/12/29 02:45:45;;;;;;;5.18;2.92;;;10.40;99.90;;;;;;4977935;28;20122;-84
2022/12/29 02:48:33;;;;;;;4.65;2.50;;;10.40;99.90;;;;;;4967795;28;20073;-84
2022/12/29 02:51:27;;;;;;;5.00;2.58;;;10.40;99.90;;;;;;4957122;28;20046;-84
2022/12/29 02:56:37;;;;;;;;;;;10.30;99.90;;;;;;4963180;28;20105;-84
2022/12/29 02:59:03;;;;;;;;;;;10.30;99.90;;;;;;4960752;28;19918;-84
2022/12/29 03:02:16;;;;;;;;;;;10.30;99.90;;;;;;4974786;28;19921;-84
2022/12/29 03:04:36;;;;;;;;;;;10.30;99.90;;;;;;4965270;28;20008;-84
2022/12/29 03:07:14;;;;;;;;;;;10.20;99.90;;;;;;4964241;28;19922;-84
2022/12/29 03:09:49;;;;;;;;;;;10.30;99.90;;;;;;4962499;28;19936;-84
2022/12/29 03:12:15;;;;;;;;;;;10.30;99.90;;;;;;4979853;28;19936;-84
2022/12/29 03:18:07;;;;;;;;;;;10.30;99.90;;;;;;4961111;28;19933;-84
2022/12/29 03:20:52;;;;;;;;;;;10.30;99.90;;;;;;4980006;28;20053;-84
2022/12/29 03:23:18;;;;;;;;;;;10.40;99.90;;;;;;4957866;28;20380;-84
2022/12/29 03:25:46;;;;;;;;;;;10.40;99.90;;;;;;4979365;28;19922;-84
2022/12/29 03:28:15;;;;;;;;;;;10.70;99.90;;;;;;4946690;28;19929;-84
2022/12/29 03:30:41;;;;;;;;;;;10.40;99.90;;;;;;4966815;28;19922;-85
2022/12/29 03:33:12;;;;;;;;;;;10.40;99.90;;;;;;4972343;28;20008;-84
2022/12/29 03:35:39;;;;;;;;;;;10.40;99.90;;;;;;4982172;28;19918;-84
2022/12/29 03:38:04;;;;;;;;;;;10.40;99.90;;;;;;4957127;28;20369;-84
2022/12/29 03:40:31;;;;;;;;;;;10.50;99.90;;;;;;4957607;28;19924;-84
2022/12/29 03:42:57;;;;;;;;;;;10.40;99.90;;;;;;4974742;28;20424;-84
2022/12/29 03:45:22;;;;;;;;;;;10.60;99.90;;;;;;4960710;28;20000;-83
2022/12/29 03:47:48;;;;;;;;;;;10.40;99.90;;;;;;4974482;28;19953;-84
2022/12/29 03:50:14;;;;;;;;;;;10.30;99.90;;;;;;4956310;28;19917;-84
2022/12/29 03:52:39;;;;;;;;;;;10.30;99.90;;;;;;4962712;28;20384;-84
2022/12/29 03:55:05;;;;;;;;;;;10.30;99.90;;;;;;4982796;28;19970;-84
2022/12/29 03:57:30;;;;;;;;;;;10.20;99.90;;;;;;4956130;28;20164;-84
2022/12/29 03:59:56;;;;;;;;;;;10.20;99.90;;;;;;4981048;28;19925;-84
2022/12/29 04:02:21;;;;;;;;;;;10.20;99.90;;;;;;4970403;28;19965;-85
2022/12/29 04:04:47;;;;;;;;;;;10.20;99.90;;;;;;4988821;28;19918;-84
2022/12/29 04:07:12;;;;;;;;;;;10.20;99.90;;;;;;4976545;28;19918;-83
2022/12/29 04:09:38;;;;;;;;;;;10.20;99.90;;;;;;4950221;28;20309;-84
2022/12/29 04:12:04;;;;;;;;;;;10.20;99.90;;;;;;4976431;28;20412;-84
2022/12/29 04:14:29;;;;;;;;;;;10.20;99.90;;;;;;4961825;28;19944;-84
2022/12/29 04:16:55;;;;;;;;;;;10.20;99.90;;;;;;4973857;28;19928;-84
2022/12/29 04:19:20;;;;;;;;;;;10.20;99.90;;;;;;4978171;28;20312;-84
2022/12/29 04:21:46;;;;;;;;;;;10.20;99.90;;;;;;4966159;28;20380;-83
2022/12/29 04:24:12;;;;;;;;;;;10.50;99.90;;;;;;4967933;28;20072;-84
2022/12/29 04:26:38;;;;;;;;;;;10.20;99.90;;;;;;4968046;28;19989;-84
2022/12/29 04:29:03;;;;;;;;;;;10.20;99.90;;;;;;4962429;28;20044;-84
2022/12/29 04:31:29;;;;;;;;;;;10.20;99.90;;;;;;4965411;28;19985;-85
2022/12/29 04:33:56;;;;;;;;;;;10.20;99.90;;;;;;4961249;28;19932;-84
2022/12/29 04:36:22;;;;;;;;;;;10.10;99.90;;;;;;4949348;28;19930;-84
2022/12/29 04:38:48;;;;;;;;;;;10.20;99.90;;;;;;4960989;28;19940;-84
2022/12/29 04:41:13;;;;;;;;;;;10.20;99.90;;;;;;4979617;28;20373;-83
2022/12/29 04:43:39;;;;;;;;;;;10.20;99.90;;;;;;4977397;28;19925;-84
2022/12/29 04:46:05;;;;;;;;;;;10.20;99.90;;;;;;4958797;28;19926;-84
2022/12/29 04:48:30;;;;;;;;;;;10.20;99.90;;;;;;4964036;28;19953;-84
2022/12/29 04:50:56;;;;;;;;;;;10.30;99.90;;;;;;4982409;28;19961;-84
2022/12/29 04:53:21;;;;;;;;;;;10.20;99.90;;;;;;4975276;28;20028;-85
2022/12/29 04:55:51;;;;;;;;;;;10.20;99.90;;;;;;4961173;28;19972;-84
2022/12/29 04:58:16;;;;;;;;;;;10.20;99.90;;;;;;4961147;28;19949;-85
2022/12/29 05:00:42;;;;;;;;;;;10.20;99.90;;;;;;4947187;28;19953;-84
2022/12/29 05:03:07;;;;;;;;;;;10.10;99.90;;;;;;4976281;28;19918;-84
2022/12/29 05:05:33;;;;;;;;;;;10.10;99.90;;;;;;4980948;28;19980;-83
2022/12/29 05:07:58;;;;;;;;;;;10.00;99.90;;;;;;4978790;28;19922;-85
2022/12/29 05:10:24;;;;;;;;;;;10.00;99.90;;;;;;4972336;28;20377;-84
2022/12/29 05:12:49;;;;;;;;;;;9.90;99.90;;;;;;4958856;28;19918;-84
2022/12/29 05:15:15;;;;;;;;;;;9.90;99.90;;;;;;4973886;28;19926;-84
2022/12/29 05:17:41;;;;;;;;;;;9.80;99.90;;;;;;4962946;28;19971;-84
2022/12/29 05:20:07;;;;;;;;;;;9.80;99.90;;;;;;4943169;28;19918;-84
2022/12/29 05:22:32;;;;;;;;;;;9.80;99.90;;;;;;4973424;28;19918;-84
2022/12/29 05:24:58;;;;;;;;;;;10.10;99.90;;;;;;4974157;28;19918;-84
2022/12/29 05:27:23;;;;;;;;;;;9.80;99.90;;;;;;4961653;28;19953;-83
2022/12/29 05:29:49;;;;;;;;;;;9.60;99.90;;;;;;4975645;28;19921;-84
2022/12/29 05:32:14;;;;;;;;;;;9.60;99.90;;;;;;4957533;28;19930;-84
2022/12/29 05:34:40;;;;;;;;;;;9.70;99.90;;;;;;4977619;28;19924;-83
2022/12/29 05:37:06;;;;;;;;;;;9.60;99.90;;;;;;4982384;28;19965;-84
2022/12/29 05:39:31;;;;;;;;;;;10.80;99.90;;;;;;4972301;28;20377;-84
2022/12/29 05:41:57;;;;;;;;;;;9.50;99.90;;;;;;4959853;28;19918;-84
2022/12/29 05:44:22;;;;;;;;;;;9.40;99.90;;;;;;4962490;28;20471;-84
2022/12/29 05:46:48;;;;;;;;;;;9.40;99.90;;;;;;4977714;28;19925;-84
2022/12/29 05:49:13;;;;;;;;;;;9.40;99.90;;;;;;4974225;28;20012;-85
2022/12/29 05:51:40;;;;;;;;;;;9.40;99.90;;;;;;4984663;28;20012;-84
2022/12/29 05:54:06;;;;;;;;;;;9.40;99.90;;;;;;4978140;28;20343;-84
2022/12/29 05:56:31;;;;;;;;;;;9.40;99.90;;;;;;4979180;28;20517;-85
2022/12/29 05:58:57;;;;;;;;;;;9.40;99.90;;;;;;4973813;28;19968;-84
2022/12/29 06:01:22;;;;;;;;;;;9.40;99.90;;;;;;4964342;28;19923;-84
2022/12/29 06:03:48;;;;;;;;;;;9.40;99.90;;;;;;4977912;28;19925;-84
2022/12/29 06:06:13;;;;;;;;;;;9.40;99.90;;;;;;4968799;28;19937;-82
2022/12/29 06:08:39;;;;;;;;;;;9.40;99.90;;;;;;4978231;28;19930;-84
2022/12/29 06:11:04;;;;;;;;;;;9.40;99.90;;;;;;4964250;28;19933;-84
2022/12/29 06:13:30;;;;;;;;;;;9.40;99.90;;;;;;4979372;28;20261;-84
2022/12/29 06:15:55;;;;;;;;;;;9.40;99.90;;;;;;4979945;28;19918;-84
2022/12/29 06:18:21;;;;;;;;;;;9.60;99.90;;;;;;4976141;28;19929;-84
2022/12/29 06:20:47;;;;;;;;;;;9.40;99.90;;;;;;4980808;28;20381;-84
2022/12/29 06:23:13;;;;;;;;;;;9.40;99.90;;;;;;4976221;28;19925;-85
2022/12/29 06:25:38;;;;;;;;;;;9.30;99.90;;;;;;4958343;28;20403;-85
2022/12/29 06:28:05;;;;;;;;;;;9.30;99.90;;;;;;4978484;28;20298;-84
2022/12/29 06:30:30;;;;;;;;;;;9.30;99.90;;;;;;4973041;28;19928;-85
2022/12/29 06:32:57;;;;;;;;;;;9.30;99.90;;;;;;4986176;28;19918;-84
2022/12/29 06:35:22;;;;;;;;;;;9.40;99.90;;;;;;4984460;28;20013;-84
2022/12/29 06:37:48;;;;;;;;;;;10.20;99.90;;;;;;4984757;28;19964;-85
2022/12/29 06:40:14;;;;;;;;;;;9.50;99.90;;;;;;4964651;28;19921;-83
2022/12/29 06:42:39;;;;;;;;;;;9.30;99.90;;;;;;4964281;28;19977;-85
2022/12/29 06:45:05;;;;;;;;;;;9.30;99.90;;;;;;4979886;28;19922;-85
2022/12/29 06:47:31;;;;;;;;;;;9.30;99.90;;;;;;4963393;28;19924;-85
2022/12/29 06:49:56;;;;;;;;;;;9.30;99.90;;;;;;4980498;28;19922;-85
2022/12/29 06:52:23;;;;;;;;;;;9.30;99.90;;;;;;4946811;28;19922;-84
2022/12/29 06:54:49;;;;;;;;;;;9.30;99.90;;;;;;4990113;28;19977;-85
2022/12/29 06:57:15;;;;;;;;;;;9.30;99.90;;;;;;4984913;28;20343;-85
2022/12/29 06:59:40;;;;;;;;;;;9.50;99.90;;;;;;4957984;28;20321;-86
2022/12/29 07:02:06;;;;;;;;;;;9.20;99.90;;;;;;4983755;28;19918;-85
2022/12/29 07:04:31;;;;;;;;;;;9.20;99.90;;;;;;4984036;28;19926;-85
2022/12/29 07:06:57;;;;;;;;;;;9.20;99.90;;;;;;4979169;28;19922;-85
2022/12/29 07:09:22;;;;;;;;;;;9.20;99.90;;;;;;4976583;28;19925;-85
2022/12/29 07:11:48;;;;;;;;;;;9.40;99.90;;;;;;4977377;28;19917;-85
2022/12/29 07:14:14;;;;;;;;;;;9.20;99.90;;;;;;4956966;28;20024;-85
2022/12/29 07:16:39;;;;;;;;;;;9.30;99.90;;;;;;4976396;28;19933;-85
2022/12/29 07:19:05;;;;;;;;;;;9.30;99.90;;;;;;4977160;28;19921;-85
2022/12/29 07:21:31;;;;;;;;;;;9.40;99.90;;;;;;4973139;28;19959;-85
2022/12/29 07:23:56;;;;;;;;;;;9.40;99.90;;;;;;4955812;28;19964;-86
2022/12/29 07:26:22;;;;;;;;;;;9.40;99.90;;;;;;4975331;28;19929;-85
2022/12/29 07:28:47;;;;;;;;;;;9.40;99.90;;;;;;4954225;28;19964;-85
2022/12/29 07:31:20;;;;;;;;;;;9.40;99.90;;;;;;4958129;28;20012;-85
2022/12/29 07:33:47;;;;;;;;;;;9.50;99.90;;;;;;4976230;28;19918;-85
2022/12/29 07:36:13;;;;;;;;;;;9.50;99.90;;;;;;4968871;28;19925;-84
2022/12/29 07:38:39;;;;;;;;;;;9.50;99.90;;;;;;4973622;28;19922;-86
2022/12/29 07:41:04;;;;;;;;;;;9.50;99.90;;;;;;4972993;28;19926;-82
2022/12/29 07:43:30;;;;;;;;;;;9.90;99.90;;;;;;4960863;28;19957;-85
2022/12/29 07:45:56;;;;;;;;;;;9.50;99.90;;;;;;4980965;28;20273;-86
2022/12/29 07:48:21;;;;;;;;;;;9.80;99.90;;;;;;4979158;28;19918;-86
2022/12/29 07:50:47;;;;;;;;;;;9.90;99.90;;;;;;4957395;28;19918;-85
2022/12/29 07:53:13;;;;;;;;;;;9.50;99.90;;;;;;4973673;28;19929;-85
2022/12/29 07:55:38;;;;;;;;;;;9.60;99.90;;;;;;4978053;28;20057;-85
2022/12/29 07:58:04;;;;;;;;;;;9.60;99.90;;;;;;4962122;28;19922;-84
2022/12/29 08:00:29;;;;;;;;;;;9.60;99.90;;;;;;4956695;28;19929;-86
2022/12/29 08:02:55;;;;;;;;;;;9.60;99.90;;;;;;4980573;28;19921;-84
2022/12/29 08:05:20;;;;;;;;;;;9.60;99.90;;;;;;4979388;28;20348;-85
2022/12/29 08:07:46;;;;;;;;;;;9.60;99.90;;;;;;4975362;28;20340;-84
2022/12/29 08:10:12;;;;;;;;;;;9.60;99.90;;;;;;4976968;28;19924;-86
2022/12/29 08:12:38;;;;;;;;;;;9.60;99.90;;;;;;4941677;28;20266;-85
2022/12/29 08:15:04;;;;;;;;;;;9.60;99.90;;;;;;4982223;28;20224;-84
2022/12/29 08:17:30;;;;;;;;;;;9.70;99.90;;;;;;4978567;28;19932;-85
2022/12/29 08:19:55;;;;;;;;;;;9.60;99.90;;;;;;4975615;28;20361;-84
2022/12/29 08:22:22;;;;;;;;;;;10.00;99.90;;;;;;4960407;28;19968;-85
2022/12/29 08:24:48;;;;;;;;;;;9.60;99.90;;;;;;4960680;28;19924;-86
2022/12/29 08:27:13;;;;;;;;;;;9.60;99.90;;;;;;4962821;28;19930;-85
2022/12/29 08:29:39;;;;;;;;;;;9.70;99.90;;;;;;4972989;28;19946;-85
2022/12/29 08:32:04;;;;;;;;;;;9.70;99.90;;;;;;4955314;28;20357;-83
2022/12/29 08:34:31;;;;;;;;;;;9.70;99.90;;;;;;4973095;28;19928;-83
2022/12/29 08:36:56;;;;;;;;;;;9.70;99.90;;;;;;4972694;28;19922;-84
2022/12/29 08:39:22;;;;;;;;;;;10.20;99.90;;;;;;4976322;28;20365;-83
2022/12/29 08:41:47;;;;;;;;;;;9.70;99.90;;;;;;4976993;28;19917;-84
2022/12/29 08:44:13;;;;;;;;;;;9.80;99.90;;;;;;4983893;28;20630;-89
2022/12/29 08:46:38;;;;;;;;;;;9.70;99.90;;;;;;4946635;28;19961;-84
2022/12/29 08:49:04;;;;;;;;;;;9.70;99.90;;;;;;4958063;28;19993;-84
2022/12/29 08:51:30;;;;;;;;;;;9.70;99.90;;;;;;4964346;28;20395;-84
2022/12/29 08:53:55;;;;;;;;;;;9.70;99.90;;;;;;4955603;28;20425;-85
2022/12/29 08:56:21;;;;;;;;;;;9.80;99.90;;;;;;4968266;28;19918;-82
2022/12/29 08:58:46;;;;;;;;;;;9.80;99.90;;;;;;4959198;28;20395;-84
2022/12/29 09:01:12;;;;;;;;;;;9.80;99.90;;;;;;4964361;28;20009;-83
2022/12/29 09:03:37;;;;;;;;;;;9.80;99.90;;;;;;4978405;28;19940;-83
2022/12/29 09:06:03;;;;;;;;;;;10.20;99.90;;;;;;4978587;28;20293;-86
2022/12/29 09:08:28;;;;;;;;;;;9.80;99.90;;;;;;4957121;28;19921;-85
2022/12/29 09:10:54;;;;;;;;;;;9.70;99.90;;;;;;4954803;28;19922;-84
2022/12/29 09:13:19;;;;;;;;;;;10.50;99.90;;;;;;4962490;28;19929;-80
2022/12/29 09:15:45;;;;;;;;;;;10.00;99.90;;;;;;4971767;28;19922;-83
2022/12/29 09:18:11;;;;;;;;;;;9.70;99.90;;;;;;4954555;28;19980;-86
2022/12/29 09:20:37;;;;;;;;;;;9.80;99.90;;;;;;4954856;28;19940;-84
2022/12/29 09:23:03;;;;;;;;;;;9.70;99.90;;;;;;4953954;28;20365;-85
2022/12/29 09:25:28;;;;;;;;;;;9.90;99.90;;;;;;4954489;28;20406;-85
2022/12/29 09:27:54;;;;;;;;;;;9.70;99.90;;;;;;4972333;28;19932;-86
2022/12/29 09:30:20;;;;;;;;;;;9.70;99.90;;;;;;4963487;28;20331;-88
2022/12/29 09:32:46;;;;;;;;;;;9.60;99.90;;;;;;4958782;28;20020;-88
2022/12/29 09:35:12;;;;;;;;;;;9.50;99.90;;;;;;4970672;28;20004;-88
2022/12/29 09:37:38;;;;;;;;;;;9.50;99.90;;;;;;4959361;28;20017;-85
2022/12/29 09:40:04;;;;;;;;;;;9.50;99.90;;;;;;4975862;28;20004;-85
2022/12/29 09:42:33;;;;;;;;;;;9.40;99.90;;;;;;4974131;28;19931;-82
2022/12/29 09:45:08;;;;;;;;;;;9.70;99.90;;;;;;4973698;28;19918;-82
2022/12/29 09:47:34;;;;;;;;;;;9.40;99.90;;;;;;4978907;28;20376;-82
2022/12/29 09:50:22;;;;;;;;;;;9.40;99.90;;;;;;4971145;28;19928;-81
2022/12/29 09:53:03;;;;;;;;;;;9.50;99.90;;;;;;4940616;28;19960;-82
2022/12/29 09:55:35;;;;;;;;;;;9.50;99.90;;;;;;4971526;28;19918;-81
2022/12/29 09:58:05;;;;;;;;;;;9.50;99.90;;;;;;4971903;28;19926;-82
2022/12/29 10:00:41;;;;;;;;;;;9.50;99.90;;;;;;4959153;28;20357;-81
2022/12/29 10:03:14;;;;;;;;;;;9.50;99.90;;;;;;4971121;28;19918;-82
2022/12/29 10:05:46;;;;;;;;;;;9.50;99.90;;;;;;4971112;28;20470;-82
2022/12/29 10:08:20;;;;;;;;;;;9.50;99.90;;;;;;4979580;28;19921;-81
2022/12/29 10:10:55;;;;;;;;;;;9.40;99.90;;;;;;4954613;28;19926;-82
2022/12/29 10:13:21;;;;;;;;;;;9.40;99.90;;;;;;4954398;28;19925;-82
2022/12/29 10:16:05;;;;;;;;;;;9.40;99.90;;;;;;4954195;28;19929;-81
2022/12/29 10:18:37;;;;;;;;;;;9.40;99.90;;;;;;4953908;28;19962;-81
2022/12/29 10:21:25;;;;;;;;;;;9.40;99.90;;;;;;4960129;28;20021;-81
2022/12/29 10:23:52;;;;;;;;;;;9.30;99.90;;;;;;4970945;28;19918;-82
2022/12/29 10:26:19;;;;;;;;;;;9.50;99.90;;;;;;4971690;28;19993;-81
2022/12/29 10:28:52;;;;;;;;;;;9.40;99.90;;;;;;4960849;28;19926;-81
2022/12/29 10:31:20;;;;;;;;;;;9.40;99.90;;;;;;4976638;28;19925;-81
2022/12/29 10:33:48;;;;;;;;;;;9.40;99.90;;;;;;4978886;28;19922;-81
2022/12/29 10:36:16;;;;;;;;;;;9.30;99.90;;;;;;4959043;28;19918;-82
2022/12/29 10:38:46;;;;;;;;;;;9.30;99.90;;;;;;4954302;28;19957;-82
2022/12/29 10:41:14;;;;;;;;;;;9.30;99.90;;;;;;4954471;28;20285;-81
2022/12/29 10:43:45;;;;;;;;;;;9.30;99.90;;;;;;4973491;28;19922;-81
2022/12/29 10:46:13;;;;;;;;;;;9.10;99.90;;;;;;4958495;28;20012;-81
2022/12/29 10:48:38;;;;;;;;;;;9.10;99.90;;;;;;4978777;28;19918;-82
2022/12/29 10:51:04;;;;;;;;;;;9.10;99.90;;;;;;4978427;28;20096;-82
2022/12/29 10:53:38;;;;;;;;;;;9.10;99.90;;;;;;4941277;28;19921;-82
2022/12/29 10:56:14;;;;;;;;;;;9.10;99.90;;;;;;4972898;28;20381;-82
2022/12/29 10:58:41;;;;;;;;;;;9.10;99.90;;;;;;4947855;28;19926;-82
2022/12/29 11:01:09;;;;;;;;;;;9.10;99.90;;;;;;4957316;28;19924;-82
2022/12/29 11:03:34;;;;;;;;;;;9.10;99.90;;;;;;4966599;28;19989;-82
2022/12/29 11:06:23;;;;;;;;;;;9.10;99.90;;;;;;4978029;28;19930;-82
2022/12/29 11:08:58;;;;;;;;;;;9.10;99.90;;;;;;4957470;28;19961;-81
2022/12/29 11:11:26;;;;;;;;;;;9.10;99.90;;;;;;4956961;28;20285;-82
2022/12/29 11:13:55;;;;;;;;;;;9.10;99.90;;;;;;4976621;28;19925;-82
2022/12/29 11:16:30;;;;;;;;;;;9.70;99.90;;;;;;4974769;28;19918;-81
2022/12/29 11:18:56;;;;;;;;;;;9.10;99.90;;;;;;4964754;28;20021;-82
2022/12/29 11:21:26;;;;;;;;;;;9.00;99.90;;;;;;4957023;28;20381;-81
2022/12/29 11:23:56;;;;;;;;;;;9.00;99.90;;;;;;4980939;28;20023;-82
2022/12/29 11:26:22;;;;;;;;;;;8.90;99.90;;;;;;4967813;28;19925;-82
2022/12/29 11:29:07;;;;;;;;;;;8.90;99.90;;;;;;4974366;28;19918;-82
2022/12/29 11:31:41;;;;;;;;;;;8.90;99.90;;;;;;4978965;28;19929;-82
2022/12/29 11:34:07;;;;;;;;;;;8.90;99.90;;;;;;4982489;28;19994;-81
2022/12/29 11:36:33;;;;;;;;;;;8.90;99.90;;;;;;4962194;28;20351;-82
2022/12/29 11:38:59;;;;;;;;;;;9.00;99.90;;;;;;4957057;28;19922;-82
2022/12/29 11:41:27;;;;;;;;;;;9.30;99.90;;;;;;4975544;28;20002;-82
2022/12/29 11:43:53;;;;;;;;;;;9.20;99.90;;;;;;4977961;28;19918;-82
2022/12/29 11:46:22;;;;;;;;;;;9.20;99.90;;;;;;4976908;28;20288;-82
2022/12/29 11:48:48;;;;;;;;;;;9.30;99.90;;;;;;4961304;28;19922;-82
2022/12/29 11:51:21;;;;;;;;;;;9.20;99.90;;;;;;4956759;28;20000;-82
2022/12/29 11:53:49;;;;;;;;;;;9.40;99.90;;;;;;4959940;28;19925;-82
2022/12/29 11:56:41;;;;;;;;;;;9.50;99.90;;;;;;4956033;28;20008;-81
2022/12/29 11:59:26;;;;;;;;;;;9.70;99.90;;;;;;4947003;28;19921;-82
2022/12/29 12:01:51;;;;;;;;;;;9.80;99.90;;;;;;4955637;28;20098;-81
2022/12/29 12:04:18;;;;;;;;;;;9.90;99.90;;;;;;4973755;28;20008;-82
2022/12/29 12:07:03;;;;;;;;;;;10.00;99.90;;;;;;4955713;28;20015;-82
2022/12/29 12:09:31;;;;;;;;;;;10.10;99.90;;;;;;4973415;28;19965;-82
2022/12/29 12:11:57;;;;;;;;;;;10.20;99.90;;;;;;4972819;28;19972;-82
2022/12/29 12:14:38;;;;;;;;;;;10.10;99.90;;;;;;4939261;28;19918;-82
2022/12/29 12:17:06;;;;;;;;;;;10.00;99.90;;;;;;4981229;28;19921;-81
2022/12/29 12:19:43;;;;;;;;;;;9.90;99.90;;;;;;4976251;28;19922;-82
2022/12/29 12:22:41;;;;;;;;;;;9.90;99.90;;;;;;4958644;28;19922;-82
2022/12/29 12:25:18;;;;;;;;;;;9.90;99.90;;;;;;4951169;28;19965;-82
2022/12/29 12:27:47;;;;;;;;;;;10.00;99.90;;;;;;4952130;28;19918;-82
2022/12/29 12:30:20;;;;;;;;;;;10.10;99.90;;;;;;4975937;28;20372;-82
2022/12/29 12:33:04;;;;;;;;;;;9.90;99.90;;;;;;4959104;28;19925;-81
2022/12/29 12:35:47;;;;;;;;;;;10.20;99.90;;;;;;4972407;28;19974;-82
2022/12/29 12:38:22;;;;;;;;;;;10.20;99.90;;;;;;4955914;28;19922;-82
2022/12/29 12:40:57;;;;;;;;;;;10.30;99.90;;;;;;4972106;28;19918;-82
2022/12/29 12:43:23;;;;;;;;;;;10.40;99.90;;;;;;4972462;28;19925;-82
2022/12/29 12:46:07;;;;;;;;;;;10.40;99.90;;;;;;4965518;28;19922;-82
2022/12/29 12:48:39;;;;;;;;;;;10.40;99.90;;;;;;4942240;28;19918;-82
2022/12/29 12:51:04;;;;;;;;;;;10.40;99.90;;;;;;4972547;28;19925;-82
2022/12/29 12:53:35;;;;;;;;;;;10.70;99.90;;;;;;4955228;28;19926;-82
2022/12/29 12:56:15;;;;;;;;;;;10.60;99.90;;;;;;4955107;28;19922;-82
2022/12/29 12:58:49;;;;;;;;;;;10.40;99.90;;;;;;4938768;28;20274;-81
2022/12/29 13:01:24;;;;;;;;;;;10.40;99.90;;;;;;4971341;28;19929;-82
2022/12/29 13:04:03;;;;;;;;;;;10.30;99.90;;;;;;4970768;28;19933;-82
2022/12/29 13:06:52;;;;;;;;;;;10.20;99.90;;;;;;4958945;28;20427;-82
2022/12/29 13:09:25;;;;;;;;;;;10.10;99.90;;;;;;4885852;29;19930;-82
2022/12/29 13:12:14;;;;;;;;;;;10.10;99.90;;;;;;4904115;29;19927;-82
2022/12/29 13:14:40;;;;;;;;;;;10.10;99.90;;;;;;4848912;29;20275;-82
2022/12/29 13:17:14;;;;;;;;;;;10.10;99.90;;;;;;4833569;29;19920;-82
2022/12/29 13:19:42;;;;;;;;;;;10.00;99.90;;;;;;4848562;29;20014;-82
2022/12/29 13:22:12;;;;;;;;;;;9.90;99.90;;;;;;4868696;29;19920;-82
2022/12/29 13:24:46;;;;;;;;;;;9.90;99.90;;;;;;4849445;29;20065;-82
2022/12/29 13:27:16;;;;;;;;;;;9.90;99.90;;;;;;4856649;29;19926;-82
2022/12/29 13:29:56;;;;;;;;;;;9.80;99.90;;;;;;4842451;29;19924;-82
2022/12/29 13:32:40;;;;;;;;;;;9.70;99.90;;;;;;4851020;29;20446;-82
2022/12/29 13:35:13;;;;;;;;;;;9.80;99.90;;;;;;4866722;29;19979;-82
2022/12/29 13:37:47;;;;;;;;;;;9.80;99.90;;;;;;4864046;29;20356;-82
2022/12/29 13:40:15;;;;;;;;;;;9.70;99.90;;;;;;4872804;29;19924;-82
2022/12/29 13:42:41;;;;;;;;;;;9.60;99.90;;;;;;4841527;29;19931;-82
2022/12/29 13:45:13;;;;;;;;;;;9.60;99.90;;;;;;4854224;29;19920;-82
2022/12/29 13:47:50;;;;;;;;;;;9.50;99.90;;;;;;4901510;29;19957;-82
2022/12/29 13:50:20;;;;;;;;;;;9.50;99.90;;;;;;4887208;29;19926;-83
2022/12/29 13:53:05;;;;;;;;;;;9.50;99.90;;;;;;4939932;28;19928;-81
2022/12/29 13:55:37;;;;;;;;;;;9.50;99.90;;;;;;4958219;28;19973;-81
2022/12/29 13:58:02;;;;;;;;;;;9.50;99.90;;;;;;4970087;28;20313;-80
2022/12/29 14:00:30;;;;;;;;;;;9.60;99.90;;;;;;4956563;28;19926;-81
2022/12/29 14:03:11;;;;;;;;;;;9.80;99.90;;;;;;4955243;28;20001;-81
2022/12/29 14:05:36;;;;;;;;;;;9.50;99.90;;;;;;4952260;28;19937;-81
2022/12/29 14:08:03;;;;;;;;;;;10.00;99.90;;;;;;4955020;28;19922;-81
2022/12/29 14:10:34;;;;;;;;;;;9.50;99.90;;;;;;4968934;28;20000;-80
2022/12/29 14:13:20;;;;;;;;;;;9.40;99.90;;;;;;4954889;28;19933;-81
2022/12/29 14:15:51;;;;;;;;;;;9.40;99.90;;;;;;4969210;28;19978;-81
2022/12/29 14:18:18;;;;;;;;;;;9.40;99.90;;;;;;4970112;28;19918;-80
2022/12/29 14:20:53;;;;;;;;;;;9.40;99.90;;;;;;4982924;28;20013;-80
2022/12/29 14:23:34;;;;;;;;;;;9.30;99.90;;;;;;4980931;28;19924;-80
2022/12/29 14:25:59;;;;;;;;;;;9.30;99.90;;;;;;4978820;28;20009;-80
2022/12/29 14:28:29;;;;;;;;;;;9.30;99.90;;;;;;4963161;28;20045;-80
2022/12/29 14:30:56;;;;;;;;;;;9.20;99.90;;;;;;4982138;28;19926;-80
2022/12/29 14:33:22;;;;;;;;;;;9.20;99.90;;;;;;4976983;28;19921;-79
2022/12/29 14:35:51;;;;;;;;;;;9.20;99.90;;;;;;4980898;28;19918;-80
2022/12/29 14:38:22;;;;;;;;;;;9.10;99.90;;;;;;4957785;28;19945;-80
2022/12/29 14:40:47;;;;;;;;;;;9.40;99.90;;;;;;4976377;28;19972;-79
2022/12/29 14:43:34;;;;;;;;;;;9.10;99.90;;;;;;4978931;28;19917;-79
2022/12/29 14:46:00;;;;;;;;;;;9.40;99.90;;;;;;4956672;28;20408;-80
2022/12/29 14:48:35;;;;;;;;;;;9.10;99.90;;;;;;4972519;28;19921;-79
2022/12/29 14:51:01;;;;;;;;;;;9.10;99.90;;;;;;4968097;28;19924;-79
2022/12/29 14:53:53;;;;;;;;;;;9.20;99.90;;;;;;4972380;28;19917;-80
2022/12/29 14:56:20;;;;;;;;;;;9.10;99.90;;;;;;4958359;28;19918;-80